sensor_id;sensor_type;location;lat;lon;timestamp;P1;durP1;ratioP1;P2;durP2;ratioP2
46651;SDS011;32377;52.182;5.398;2023-09-08T00:02:22;13.45;;;11.50;;
46651;SDS011;32377;52.182;5.398;2023-09-08T00:04:48;15.52;;;11.05;;
46651;SDS011;32377;52.182;5.398;2023-09-08T00:07:13;13.65;;;11.35;;
46651;SDS011;32377;52.182;5.398;2023-09-08T00:09:39;15.35;;;11.05;;
46651;SDS011;32377;52.182;5.398;2023-09-08T00:12:05;11.63;;;10.43;;
46651;SDS011;32377;52.182;5.398;2023-09-08T00:14:31;15.20;;;10.02;;
46651;SDS011;32377;52.182;5.398;2023-09-08T00:16:56;12.02;;;10.82;;
46651;SDS011;32377;52.182;5.398;2023-09-08T00:19:22;14.57;;;11.13;;
46651;SDS011;32377;52.182;5.398;2023-09-08T00:21:48;15.02;;;11.48;;
46651;SDS011;32377;52.182;5.398;2023-09-08T00:24:14;13.40;;;11.43;;
46651;SDS011;32377;52.182;5.398;2023-09-08T00:26:40;14.85;;;12.43;;
46651;SDS011;32377;52.182;5.398;2023-09-08T00:29:06;15.68;;;12.80;;
46651;SDS011;32377;52.182;5.398;2023-09-08T00:31:32;17.40;;;12.13;;
46651;SDS011;32377;52.182;5.398;2023-09-08T00:33:58;16.65;;;11.82;;
46651;SDS011;32377;52.182;5.398;2023-09-08T00:36:24;15.43;;;11.88;;
46651;SDS011;32377;52.182;5.398;2023-09-08T00:38:49;14.93;;;12.52;;
46651;SDS011;32377;52.182;5.398;2023-09-08T00:41:15;14.73;;;12.55;;
46651;SDS011;32377;52.182;5.398;2023-09-08T00:43:41;21.40;;;13.63;;
46651;SDS011;32377;52.182;5.398;2023-09-08T00:46:06;15.75;;;12.70;;
46651;SDS011;32377;52.182;5.398;2023-09-08T00:48:33;18.27;;;12.60;;
46651;SDS011;32377;52.182;5.398;2023-09-08T00:51:00;17.58;;;13.75;;
46651;SDS011;32377;52.182;5.398;2023-09-08T00:53:26;18.00;;;14.20;;
46651;SDS011;32377;52.182;5.398;2023-09-08T00:55:51;18.73;;;14.23;;
46651;SDS011;32377;52.182;5.398;2023-09-08T00:58:18;20.05;;;15.18;;
46651;SDS011;32377;52.182;5.398;2023-09-08T01:00:44;20.75;;;15.80;;
46651;SDS011;32377;52.182;5.398;2023-09-08T01:03:13;16.90;;;14.68;;
46651;SDS011;32377;52.182;5.398;2023-09-08T01:05:38;17.35;;;15.48;;
46651;SDS011;32377;52.182;5.398;2023-09-08T01:08:05;19.98;;;15.15;;
46651;SDS011;32377;52.182;5.398;2023-09-08T01:10:31;20.77;;;15.05;;
46651;SDS011;32377;52.182;5.398;2023-09-08T01:12:57;20.23;;;15.65;;
46651;SDS011;32377;52.182;5.398;2023-09-08T01:15:23;19.80;;;15.57;;
46651;SDS011;32377;52.182;5.398;2023-09-08T01:17:48;19.58;;;16.23;;
46651;SDS011;32377;52.182;5.398;2023-09-08T01:20:22;22.88;;;16.77;;
46651;SDS011;32377;52.182;5.398;2023-09-08T01:25:53;19.75;;;15.82;;
46651;SDS011;32377;52.182;5.398;2023-09-08T01:28:23;20.23;;;16.67;;
46651;SDS011;32377;52.182;5.398;2023-09-08T01:30:50;22.45;;;15.60;;
46651;SDS011;32377;52.182;5.398;2023-09-08T01:33:16;19.42;;;16.27;;
46651;SDS011;32377;52.182;5.398;2023-09-08T01:35:42;21.23;;;15.98;;
46651;SDS011;32377;52.182;5.398;2023-09-08T01:38:08;17.85;;;15.18;;
46651;SDS011;32377;52.182;5.398;2023-09-08T01:40:34;21.23;;;16.33;;
46651;SDS011;32377;52.182;5.398;2023-09-08T01:43:00;19.98;;;16.25;;
46651;SDS011;32377;52.182;5.398;2023-09-08T01:45:25;19.58;;;16.52;;
46651;SDS011;32377;52.182;5.398;2023-09-08T01:47:51;21.33;;;16.42;;
46651;SDS011;32377;52.182;5.398;2023-09-08T01:50:17;21.13;;;17.00;;
46651;SDS011;32377;52.182;5.398;2023-09-08T01:52:46;18.83;;;15.63;;
46651;SDS011;32377;52.182;5.398;2023-09-08T01:55:12;21.75;;;17.42;;
46651;SDS011;32377;52.182;5.398;2023-09-08T01:57:38;20.33;;;16.65;;
46651;SDS011;32377;52.182;5.398;2023-09-08T02:00:03;23.42;;;17.52;;
46651;SDS011;32377;52.182;5.398;2023-09-08T02:02:30;24.83;;;18.80;;
46651;SDS011;32377;52.182;5.398;2023-09-08T02:04:56;25.83;;;18.25;;
46651;SDS011;32377;52.182;5.398;2023-09-08T02:07:21;19.95;;;17.15;;
46651;SDS011;32377;52.182;5.398;2023-09-08T02:09:47;23.45;;;19.13;;
46651;SDS011;32377;52.182;5.398;2023-09-08T02:12:12;19.55;;;17.33;;
46651;SDS011;32377;52.182;5.398;2023-09-08T02:14:38;22.15;;;17.27;;
46651;SDS011;32377;52.182;5.398;2023-09-08T02:17:04;25.10;;;17.80;;
46651;SDS011;32377;52.182;5.398;2023-09-08T02:19:31;24.15;;;19.15;;
46651;SDS011;32377;52.182;5.398;2023-09-08T02:21:56;23.48;;;18.88;;
46651;SDS011;32377;52.182;5.398;2023-09-08T02:24:22;24.42;;;18.08;;
46651;SDS011;32377;52.182;5.398;2023-09-08T02:26:48;24.35;;;17.70;;
46651;SDS011;32377;52.182;5.398;2023-09-08T02:29:14;21.85;;;17.25;;
46651;SDS011;32377;52.182;5.398;2023-09-08T02:31:40;22.23;;;16.88;;
46651;SDS011;32377;52.182;5.398;2023-09-08T02:34:05;25.52;;;18.77;;
46651;SDS011;32377;52.182;5.398;2023-09-08T02:36:31;25.42;;;19.23;;
46651;SDS011;32377;52.182;5.398;2023-09-08T02:38:56;21.08;;;17.77;;
46651;SDS011;32377;52.182;5.398;2023-09-08T02:41:22;23.42;;;18.50;;
46651;SDS011;32377;52.182;5.398;2023-09-08T02:43:49;25.15;;;19.60;;
46651;SDS011;32377;52.182;5.398;2023-09-08T02:46:15;22.80;;;18.13;;
46651;SDS011;32377;52.182;5.398;2023-09-08T02:48:41;27.02;;;19.17;;
46651;SDS011;32377;52.182;5.398;2023-09-08T02:51:07;29.63;;;21.25;;
46651;SDS011;32377;52.182;5.398;2023-09-08T02:53:33;26.25;;;19.73;;
46651;SDS011;32377;52.182;5.398;2023-09-08T02:55:58;25.90;;;19.35;;
46651;SDS011;32377;52.182;5.398;2023-09-08T02:58:25;26.65;;;19.83;;
46651;SDS011;32377;52.182;5.398;2023-09-08T03:00:51;27.08;;;19.48;;
46651;SDS011;32377;52.182;5.398;2023-09-08T03:03:20;25.00;;;18.17;;
46651;SDS011;32377;52.182;5.398;2023-09-08T03:05:46;24.73;;;18.02;;
46651;SDS011;32377;52.182;5.398;2023-09-08T03:08:11;23.60;;;18.88;;
46651;SDS011;32377;52.182;5.398;2023-09-08T03:10:37;22.98;;;18.45;;
46651;SDS011;32377;52.182;5.398;2023-09-08T03:13:03;24.58;;;19.25;;
46651;SDS011;32377;52.182;5.398;2023-09-08T03:15:29;34.63;;;21.25;;
46651;SDS011;32377;52.182;5.398;2023-09-08T03:17:55;25.15;;;19.42;;
46651;SDS011;32377;52.182;5.398;2023-09-08T03:20:21;29.98;;;20.95;;
46651;SDS011;32377;52.182;5.398;2023-09-08T03:22:47;26.85;;;19.95;;
46651;SDS011;32377;52.182;5.398;2023-09-08T03:25:15;27.95;;;19.92;;
46651;SDS011;32377;52.182;5.398;2023-09-08T03:27:41;25.75;;;18.23;;
46651;SDS011;32377;52.182;5.398;2023-09-08T03:30:06;26.77;;;20.70;;
46651;SDS011;32377;52.182;5.398;2023-09-08T03:32:33;29.25;;;21.02;;
46651;SDS011;32377;52.182;5.398;2023-09-08T03:34:58;25.92;;;19.95;;
46651;SDS011;32377;52.182;5.398;2023-09-08T03:37:24;29.77;;;20.17;;
46651;SDS011;32377;52.182;5.398;2023-09-08T03:39:51;26.27;;;20.83;;
46651;SDS011;32377;52.182;5.398;2023-09-08T03:42:17;32.22;;;22.40;;
46651;SDS011;32377;52.182;5.398;2023-09-08T03:44:43;25.63;;;21.10;;
46651;SDS011;32377;52.182;5.398;2023-09-08T03:47:08;26.67;;;20.90;;
46651;SDS011;32377;52.182;5.398;2023-09-08T03:49:34;25.63;;;20.38;;
46651;SDS011;32377;52.182;5.398;2023-09-08T03:51:59;25.48;;;20.15;;
46651;SDS011;32377;52.182;5.398;2023-09-08T03:54:25;29.30;;;21.08;;
46651;SDS011;32377;52.182;5.398;2023-09-08T03:56:51;38.22;;;23.58;;
46651;SDS011;32377;52.182;5.398;2023-09-08T03:59:16;27.27;;;21.70;;
46651;SDS011;32377;52.182;5.398;2023-09-08T04:01:42;31.63;;;23.50;;
46651;SDS011;32377;52.182;5.398;2023-09-08T04:04:07;37.90;;;23.85;;
46651;SDS011;32377;52.182;5.398;2023-09-08T04:06:33;35.38;;;23.63;;
46651;SDS011;32377;52.182;5.398;2023-09-08T04:08:59;27.35;;;21.95;;
46651;SDS011;32377;52.182;5.398;2023-09-08T04:11:25;32.72;;;23.30;;
46651;SDS011;32377;52.182;5.398;2023-09-08T04:13:51;31.40;;;22.90;;
46651;SDS011;32377;52.182;5.398;2023-09-08T04:16:16;29.40;;;23.42;;
46651;SDS011;32377;52.182;5.398;2023-09-08T04:18:42;26.30;;;21.58;;
46651;SDS011;32377;52.182;5.398;2023-09-08T04:21:08;33.55;;;21.95;;
46651;SDS011;32377;52.182;5.398;2023-09-08T04:23:33;32.15;;;21.77;;
46651;SDS011;32377;52.182;5.398;2023-09-08T04:25:59;30.30;;;22.67;;
46651;SDS011;32377;52.182;5.398;2023-09-08T04:28:25;30.88;;;23.08;;
46651;SDS011;32377;52.182;5.398;2023-09-08T04:30:50;32.53;;;22.83;;
46651;SDS011;32377;52.182;5.398;2023-09-08T04:33:16;33.60;;;22.95;;
46651;SDS011;32377;52.182;5.398;2023-09-08T04:35:41;29.48;;;21.92;;
46651;SDS011;32377;52.182;5.398;2023-09-08T04:38:08;30.55;;;24.30;;
46651;SDS011;32377;52.182;5.398;2023-09-08T04:40:34;30.08;;;21.75;;
46651;SDS011;32377;52.182;5.398;2023-09-08T04:42:59;35.25;;;25.33;;
46651;SDS011;32377;52.182;5.398;2023-09-08T04:45:25;31.85;;;24.80;;
46651;SDS011;32377;52.182;5.398;2023-09-08T04:47:51;29.27;;;21.50;;
46651;SDS011;32377;52.182;5.398;2023-09-08T04:50:16;30.13;;;23.30;;
46651;SDS011;32377;52.182;5.398;2023-09-08T04:52:42;32.67;;;25.23;;
46651;SDS011;32377;52.182;5.398;2023-09-08T04:55:07;27.27;;;22.33;;
46651;SDS011;32377;52.182;5.398;2023-09-08T04:57:34;29.25;;;23.58;;
46651;SDS011;32377;52.182;5.398;2023-09-08T05:00:01;32.33;;;24.05;;
46651;SDS011;32377;52.182;5.398;2023-09-08T05:02:27;27.52;;;21.48;;
46651;SDS011;32377;52.182;5.398;2023-09-08T05:04:52;31.52;;;22.95;;
46651;SDS011;32377;52.182;5.398;2023-09-08T05:07:18;31.25;;;23.40;;
46651;SDS011;32377;52.182;5.398;2023-09-08T05:09:44;29.10;;;23.30;;
46651;SDS011;32377;52.182;5.398;2023-09-08T05:12:09;35.22;;;24.10;;
46651;SDS011;32377;52.182;5.398;2023-09-08T05:14:35;29.90;;;22.48;;
46651;SDS011;32377;52.182;5.398;2023-09-08T05:17:01;36.10;;;25.17;;
46651;SDS011;32377;52.182;5.398;2023-09-08T05:19:26;34.05;;;25.65;;
46651;SDS011;32377;52.182;5.398;2023-09-08T05:21:53;33.10;;;24.70;;
46651;SDS011;32377;52.182;5.398;2023-09-08T05:24:19;31.80;;;25.10;;
46651;SDS011;32377;52.182;5.398;2023-09-08T05:26:46;34.75;;;23.95;;
46651;SDS011;32377;52.182;5.398;2023-09-08T05:29:12;31.30;;;22.95;;
46651;SDS011;32377;52.182;5.398;2023-09-08T05:31:38;30.70;;;23.92;;
46651;SDS011;32377;52.182;5.398;2023-09-08T05:34:03;32.05;;;24.02;;
46651;SDS011;32377;52.182;5.398;2023-09-08T05:36:29;26.23;;;20.38;;
46651;SDS011;32377;52.182;5.398;2023-09-08T05:38:56;27.02;;;21.85;;
46651;SDS011;32377;52.182;5.398;2023-09-08T05:41:21;32.95;;;23.42;;
46651;SDS011;32377;52.182;5.398;2023-09-08T05:43:47;31.98;;;23.20;;
46651;SDS011;32377;52.182;5.398;2023-09-08T05:46:13;29.60;;;21.73;;
46651;SDS011;32377;52.182;5.398;2023-09-08T05:48:39;28.95;;;20.77;;
46651;SDS011;32377;52.182;5.398;2023-09-08T05:51:04;34.75;;;22.88;;
46651;SDS011;32377;52.182;5.398;2023-09-08T05:53:31;28.17;;;21.92;;
46651;SDS011;32377;52.182;5.398;2023-09-08T05:55:57;34.00;;;21.58;;
46651;SDS011;32377;52.182;5.398;2023-09-08T05:58:23;27.33;;;21.17;;
46651;SDS011;32377;52.182;5.398;2023-09-08T06:00:52;31.92;;;22.17;;
46651;SDS011;32377;52.182;5.398;2023-09-08T06:03:18;27.95;;;21.10;;
46651;SDS011;32377;52.182;5.398;2023-09-08T06:05:44;24.13;;;19.73;;
46651;SDS011;32377;52.182;5.398;2023-09-08T06:08:09;28.33;;;20.95;;
46651;SDS011;32377;52.182;5.398;2023-09-08T06:10:35;31.08;;;22.17;;
46651;SDS011;32377;52.182;5.398;2023-09-08T06:13:01;27.80;;;19.40;;
46651;SDS011;32377;52.182;5.398;2023-09-08T06:15:26;30.15;;;20.02;;
46651;SDS011;32377;52.182;5.398;2023-09-08T06:17:52;26.85;;;21.65;;
46651;SDS011;32377;52.182;5.398;2023-09-08T06:20:18;24.45;;;18.95;;
46651;SDS011;32377;52.182;5.398;2023-09-08T06:22:43;23.75;;;18.58;;
46651;SDS011;32377;52.182;5.398;2023-09-08T06:25:09;28.73;;;20.20;;
46651;SDS011;32377;52.182;5.398;2023-09-08T06:27:34;31.30;;;19.55;;
46651;SDS011;32377;52.182;5.398;2023-09-08T06:30:00;27.15;;;19.45;;
46651;SDS011;32377;52.182;5.398;2023-09-08T06:32:26;23.40;;;18.08;;
46651;SDS011;32377;52.182;5.398;2023-09-08T06:34:51;23.42;;;19.60;;
46651;SDS011;32377;52.182;5.398;2023-09-08T06:37:17;27.75;;;19.25;;
46651;SDS011;32377;52.182;5.398;2023-09-08T06:39:43;30.25;;;18.98;;
46651;SDS011;32377;52.182;5.398;2023-09-08T06:42:08;24.42;;;18.45;;
46651;SDS011;32377;52.182;5.398;2023-09-08T06:44:34;27.50;;;18.85;;
46651;SDS011;32377;52.182;5.398;2023-09-08T06:46:59;30.27;;;19.13;;
46651;SDS011;32377;52.182;5.398;2023-09-08T06:49:25;28.98;;;19.00;;
46651;SDS011;32377;52.182;5.398;2023-09-08T06:51:51;24.55;;;18.35;;
46651;SDS011;32377;52.182;5.398;2023-09-08T06:54:16;32.45;;;18.40;;
46651;SDS011;32377;52.182;5.398;2023-09-08T06:56:42;28.88;;;19.75;;
46651;SDS011;32377;52.182;5.398;2023-09-08T06:59:08;27.10;;;18.88;;
46651;SDS011;32377;52.182;5.398;2023-09-08T07:01:34;24.13;;;17.40;;
46651;SDS011;32377;52.182;5.398;2023-09-08T07:04:00;22.35;;;17.42;;
46651;SDS011;32377;52.182;5.398;2023-09-08T07:06:26;21.73;;;16.98;;
46651;SDS011;32377;52.182;5.398;2023-09-08T07:08:51;29.30;;;18.00;;
46651;SDS011;32377;52.182;5.398;2023-09-08T07:11:34;25.02;;;16.90;;
46651;SDS011;32377;52.182;5.398;2023-09-08T07:14:00;27.40;;;17.50;;
46651;SDS011;32377;52.182;5.398;2023-09-08T07:16:25;18.17;;;15.77;;
46651;SDS011;32377;52.182;5.398;2023-09-08T07:18:51;23.15;;;15.65;;
46651;SDS011;32377;52.182;5.398;2023-09-08T07:21:17;22.80;;;15.10;;
46651;SDS011;32377;52.182;5.398;2023-09-08T07:23:42;19.60;;;14.93;;
46651;SDS011;32377;52.182;5.398;2023-09-08T07:26:08;20.33;;;15.50;;
46651;SDS011;32377;52.182;5.398;2023-09-08T07:28:33;21.23;;;14.93;;
46651;SDS011;32377;52.182;5.398;2023-09-08T07:31:03;17.77;;;14.68;;
46651;SDS011;32377;52.182;5.398;2023-09-08T07:33:29;21.55;;;14.13;;
46651;SDS011;32377;52.182;5.398;2023-09-08T07:35:55;24.15;;;15.05;;
46651;SDS011;32377;52.182;5.398;2023-09-08T07:38:20;20.50;;;14.35;;
46651;SDS011;32377;52.182;5.398;2023-09-08T07:40:46;16.75;;;13.63;;
46651;SDS011;32377;52.182;5.398;2023-09-08T07:43:12;17.70;;;13.80;;
46651;SDS011;32377;52.182;5.398;2023-09-08T07:45:37;20.83;;;14.70;;
46651;SDS011;32377;52.182;5.398;2023-09-08T07:48:05;22.38;;;14.18;;
46651;SDS011;32377;52.182;5.398;2023-09-08T07:50:31;19.42;;;14.10;;
46651;SDS011;32377;52.182;5.398;2023-09-08T07:52:57;19.98;;;14.10;;
46651;SDS011;32377;52.182;5.398;2023-09-08T07:55:23;18.75;;;13.80;;
46651;SDS011;32377;52.182;5.398;2023-09-08T07:57:52;22.70;;;13.10;;
46651;SDS011;32377;52.182;5.398;2023-09-08T08:00:18;18.33;;;12.90;;
46651;SDS011;32377;52.182;5.398;2023-09-08T08:02:48;16.92;;;12.52;;
46651;SDS011;32377;52.182;5.398;2023-09-08T08:05:15;15.00;;;11.52;;
46651;SDS011;32377;52.182;5.398;2023-09-08T08:07:41;16.15;;;13.07;;
46651;SDS011;32377;52.182;5.398;2023-09-08T08:10:09;17.80;;;12.63;;
46651;SDS011;32377;52.182;5.398;2023-09-08T08:12:35;21.00;;;13.52;;
46651;SDS011;32377;52.182;5.398;2023-09-08T08:15:01;17.67;;;12.35;;
46651;SDS011;32377;52.182;5.398;2023-09-08T08:17:27;17.05;;;12.25;;
46651;SDS011;32377;52.182;5.398;2023-09-08T08:19:54;25.65;;;13.63;;
46651;SDS011;32377;52.182;5.398;2023-09-08T08:22:20;21.80;;;12.65;;
46651;SDS011;32377;52.182;5.398;2023-09-08T08:24:46;16.08;;;12.48;;
46651;SDS011;32377;52.182;5.398;2023-09-08T08:27:11;18.85;;;13.32;;
46651;SDS011;32377;52.182;5.398;2023-09-08T08:29:38;18.25;;;12.98;;
46651;SDS011;32377;52.182;5.398;2023-09-08T08:32:04;17.13;;;13.10;;
46651;SDS011;32377;52.182;5.398;2023-09-08T08:34:30;17.20;;;11.82;;
46651;SDS011;32377;52.182;5.398;2023-09-08T08:36:56;18.38;;;11.85;;
46651;SDS011;32377;52.182;5.398;2023-09-08T08:39:22;13.82;;;11.43;;
46651;SDS011;32377;52.182;5.398;2023-09-08T08:41:48;18.95;;;12.25;;
46651;SDS011;32377;52.182;5.398;2023-09-08T08:44:13;15.55;;;12.18;;
46651;SDS011;32377;52.182;5.398;2023-09-08T08:46:44;17.80;;;11.27;;
46651;SDS011;32377;52.182;5.398;2023-09-08T08:49:11;14.15;;;11.20;;
46651;SDS011;32377;52.182;5.398;2023-09-08T08:51:42;17.83;;;11.25;;
46651;SDS011;32377;52.182;5.398;2023-09-08T08:54:11;15.55;;;10.45;;
46651;SDS011;32377;52.182;5.398;2023-09-08T08:56:38;14.07;;;11.45;;
46651;SDS011;32377;52.182;5.398;2023-09-08T08:59:04;18.95;;;11.73;;
46651;SDS011;32377;52.182;5.398;2023-09-08T09:01:31;14.60;;;9.98;;
46651;SDS011;32377;52.182;5.398;2023-09-08T09:03:57;14.00;;;10.63;;
46651;SDS011;32377;52.182;5.398;2023-09-08T09:06:23;16.10;;;10.50;;
46651;SDS011;32377;52.182;5.398;2023-09-08T09:08:49;15.13;;;11.50;;
46651;SDS011;32377;52.182;5.398;2023-09-08T09:11:14;16.23;;;10.77;;
46651;SDS011;32377;52.182;5.398;2023-09-08T09:13:41;14.23;;;11.25;;
46651;SDS011;32377;52.182;5.398;2023-09-08T09:16:06;13.00;;;10.40;;
46651;SDS011;32377;52.182;5.398;2023-09-08T09:18:48;12.80;;;10.85;;
46651;SDS011;32377;52.182;5.398;2023-09-08T09:21:20;16.75;;;10.10;;
46651;SDS011;32377;52.182;5.398;2023-09-08T09:23:46;13.48;;;10.90;;
46651;SDS011;32377;52.182;5.398;2023-09-08T09:26:12;13.45;;;11.05;;
46651;SDS011;32377;52.182;5.398;2023-09-08T09:28:51;15.98;;;10.05;;
46651;SDS011;32377;52.182;5.398;2023-09-08T09:31:19;16.63;;;10.60;;
46651;SDS011;32377;52.182;5.398;2023-09-08T09:33:49;15.70;;;10.32;;
46651;SDS011;32377;52.182;5.398;2023-09-08T09:36:28;14.85;;;10.05;;
46651;SDS011;32377;52.182;5.398;2023-09-08T09:38:57;13.05;;;8.95;;
46651;SDS011;32377;52.182;5.398;2023-09-08T09:41:24;13.50;;;9.95;;
46651;SDS011;32377;52.182;5.398;2023-09-08T09:43:49;13.00;;;9.95;;
46651;SDS011;32377;52.182;5.398;2023-09-08T09:46:15;13.15;;;10.05;;
46651;SDS011;32377;52.182;5.398;2023-09-08T09:48:40;14.13;;;9.55;;
46651;SDS011;32377;52.182;5.398;2023-09-08T09:51:16;18.23;;;10.05;;
46651;SDS011;32377;52.182;5.398;2023-09-08T09:53:42;12.35;;;9.02;;
46651;SDS011;32377;52.182;5.398;2023-09-08T09:56:08;11.05;;;8.35;;
46651;SDS011;32377;52.182;5.398;2023-09-08T09:58:35;12.15;;;10.05;;
46651;SDS011;32377;52.182;5.398;2023-09-08T10:01:02;9.15;;;8.23;;
46651;SDS011;32377;52.182;5.398;2023-09-08T10:03:29;9.07;;;8.07;;
46651;SDS011;32377;52.182;5.398;2023-09-08T10:05:56;14.98;;;8.77;;
46651;SDS011;32377;52.182;5.398;2023-09-08T10:08:22;15.15;;;8.80;;
46651;SDS011;32377;52.182;5.398;2023-09-08T10:10:48;13.15;;;8.73;;
46651;SDS011;32377;52.182;5.398;2023-09-08T10:13:16;11.80;;;9.02;;
46651;SDS011;32377;52.182;5.398;2023-09-08T10:15:48;13.73;;;9.98;;
46651;SDS011;32377;52.182;5.398;2023-09-08T10:18:15;11.00;;;8.75;;
46651;SDS011;32377;52.182;5.398;2023-09-08T10:20:44;14.43;;;8.60;;
46651;SDS011;32377;52.182;5.398;2023-09-08T10:23:35;10.52;;;8.30;;
46651;SDS011;32377;52.182;5.398;2023-09-08T10:26:03;11.20;;;8.45;;
46651;SDS011;32377;52.182;5.398;2023-09-08T10:28:34;11.95;;;8.15;;
46651;SDS011;32377;52.182;5.398;2023-09-08T10:31:01;10.07;;;7.60;;
46651;SDS011;32377;52.182;5.398;2023-09-08T10:33:28;10.95;;;8.10;;
46651;SDS011;32377;52.182;5.398;2023-09-08T10:35:55;10.48;;;7.97;;
46651;SDS011;32377;52.182;5.398;2023-09-08T10:41:26;12.88;;;8.77;;
46651;SDS011;32377;52.182;5.398;2023-09-08T10:43:43;13.30;;;8.80;;
46651;SDS011;32377;52.182;5.398;2023-09-08T10:46:09;12.10;;;8.50;;
46651;SDS011;32377;52.182;5.398;2023-09-08T10:48:41;10.68;;;8.68;;
46651;SDS011;32377;52.182;5.398;2023-09-08T10:51:12;14.77;;;9.30;;
46651;SDS011;32377;52.182;5.398;2023-09-08T10:53:46;9.73;;;7.68;;
46651;SDS011;32377;52.182;5.398;2023-09-08T10:56:14;12.80;;;9.65;;
46651;SDS011;32377;52.182;5.398;2023-09-08T10:58:40;11.30;;;8.63;;
46651;SDS011;32377;52.182;5.398;2023-09-08T11:01:11;10.07;;;7.50;;
46651;SDS011;32377;52.182;5.398;2023-09-08T11:06:06;12.02;;;8.65;;
46651;SDS011;32377;52.182;5.398;2023-09-08T11:08:32;9.48;;;7.32;;
46651;SDS011;32377;52.182;5.398;2023-09-08T11:10:58;9.55;;;7.68;;
46651;SDS011;32377;52.182;5.398;2023-09-08T11:13:25;8.88;;;7.35;;
46651;SDS011;32377;52.182;5.398;2023-09-08T11:15:54;10.10;;;8.02;;
46651;SDS011;32377;52.182;5.398;2023-09-08T11:18:27;14.70;;;7.40;;
46651;SDS011;32377;52.182;5.398;2023-09-08T11:20:56;10.10;;;7.80;;
46651;SDS011;32377;52.182;5.398;2023-09-08T11:23:23;9.02;;;8.10;;
46651;SDS011;32377;52.182;5.398;2023-09-08T11:25:49;12.77;;;8.55;;
46651;SDS011;32377;52.182;5.398;2023-09-08T11:28:16;12.10;;;7.78;;
46651;SDS011;32377;52.182;5.398;2023-09-08T11:30:42;9.13;;;7.25;;
46651;SDS011;32377;52.182;5.398;2023-09-08T11:33:14;11.23;;;7.70;;
46651;SDS011;32377;52.182;5.398;2023-09-08T11:35:41;11.43;;;7.10;;
46651;SDS011;32377;52.182;5.398;2023-09-08T11:38:09;8.63;;;7.60;;
46651;SDS011;32377;52.182;5.398;2023-09-08T11:40:35;11.80;;;7.15;;
46651;SDS011;32377;52.182;5.398;2023-09-08T11:43:02;9.35;;;6.82;;
46651;SDS011;32377;52.182;5.398;2023-09-08T11:45:28;12.25;;;7.75;;
46651;SDS011;32377;52.182;5.398;2023-09-08T11:47:56;12.20;;;8.05;;
46651;SDS011;32377;52.182;5.398;2023-09-08T11:50:22;9.52;;;7.95;;
46651;SDS011;32377;52.182;5.398;2023-09-08T11:52:49;8.57;;;7.47;;
46651;SDS011;32377;52.182;5.398;2023-09-08T11:55:19;11.10;;;7.57;;
46651;SDS011;32377;52.182;5.398;2023-09-08T11:57:50;10.95;;;7.00;;
46651;SDS011;32377;52.182;5.398;2023-09-08T12:00:26;8.95;;;6.90;;
46651;SDS011;32377;52.182;5.398;2023-09-08T12:02:53;12.50;;;7.60;;
46651;SDS011;32377;52.182;5.398;2023-09-08T12:05:26;9.80;;;7.20;;
46651;SDS011;32377;52.182;5.398;2023-09-08T12:07:53;8.07;;;6.45;;
46651;SDS011;32377;52.182;5.398;2023-09-08T12:10:21;8.95;;;7.13;;
46651;SDS011;32377;52.182;5.398;2023-09-08T12:12:50;9.68;;;6.88;;
46651;SDS011;32377;52.182;5.398;2023-09-08T12:15:32;8.20;;;7.13;;
46651;SDS011;32377;52.182;5.398;2023-09-08T12:18:05;10.32;;;7.43;;
46651;SDS011;32377;52.182;5.398;2023-09-08T12:20:36;14.93;;;7.65;;
46651;SDS011;32377;52.182;5.398;2023-09-08T12:23:04;10.07;;;7.03;;
46651;SDS011;32377;52.182;5.398;2023-09-08T12:25:32;12.15;;;6.90;;
46651;SDS011;32377;52.182;5.398;2023-09-08T12:27:58;12.10;;;7.00;;
46651;SDS011;32377;52.182;5.398;2023-09-08T12:30:24;9.38;;;6.28;;
46651;SDS011;32377;52.182;5.398;2023-09-08T12:32:58;14.40;;;7.30;;
46651;SDS011;32377;52.182;5.398;2023-09-08T12:35:24;8.48;;;7.00;;
46651;SDS011;32377;52.182;5.398;2023-09-08T12:37:56;10.52;;;6.90;;
46651;SDS011;32377;52.182;5.398;2023-09-08T12:40:22;15.43;;;7.25;;
46651;SDS011;32377;52.182;5.398;2023-09-08T12:42:48;11.35;;;7.10;;
46651;SDS011;32377;52.182;5.398;2023-09-08T12:45:14;13.50;;;7.32;;
46651;SDS011;32377;52.182;5.398;2023-09-08T12:47:40;11.38;;;7.15;;
46651;SDS011;32377;52.182;5.398;2023-09-08T12:50:05;8.23;;;6.82;;
46651;SDS011;32377;52.182;5.398;2023-09-08T12:52:32;9.57;;;6.93;;
46651;SDS011;32377;52.182;5.398;2023-09-08T12:54:58;15.52;;;7.65;;
46651;SDS011;32377;52.182;5.398;2023-09-08T12:57:23;12.80;;;6.97;;
46651;SDS011;32377;52.182;5.398;2023-09-08T12:59:49;7.82;;;6.78;;
46651;SDS011;32377;52.182;5.398;2023-09-08T13:02:16;13.38;;;7.70;;
46651;SDS011;32377;52.182;5.398;2023-09-08T13:04:42;12.93;;;6.85;;
46651;SDS011;32377;52.182;5.398;2023-09-08T13:07:13;11.73;;;6.03;;
46651;SDS011;32377;52.182;5.398;2023-09-08T13:09:42;8.57;;;5.75;;
46651;SDS011;32377;52.182;5.398;2023-09-08T13:12:08;8.50;;;5.93;;
46651;SDS011;32377;52.182;5.398;2023-09-08T13:14:38;10.15;;;5.72;;
46651;SDS011;32377;52.182;5.398;2023-09-08T13:17:08;9.77;;;6.38;;
46651;SDS011;32377;52.182;5.398;2023-09-08T13:19:34;10.75;;;6.13;;
46651;SDS011;32377;52.182;5.398;2023-09-08T13:22:00;12.35;;;5.82;;
46651;SDS011;32377;52.182;5.398;2023-09-08T13:24:26;10.43;;;6.05;;
46651;SDS011;32377;52.182;5.398;2023-09-08T13:26:51;6.82;;;5.32;;
46651;SDS011;32377;52.182;5.398;2023-09-08T13:29:17;6.60;;;5.95;;
46651;SDS011;32377;52.182;5.398;2023-09-08T13:31:43;9.75;;;6.05;;
46651;SDS011;32377;52.182;5.398;2023-09-08T13:34:09;13.38;;;5.97;;
46651;SDS011;32377;52.182;5.398;2023-09-08T13:36:34;12.02;;;5.50;;
46651;SDS011;32377;52.182;5.398;2023-09-08T13:39:00;12.63;;;5.75;;
46651;SDS011;32377;52.182;5.398;2023-09-08T13:41:44;6.72;;;5.53;;
46651;SDS011;32377;52.182;5.398;2023-09-08T13:44:09;10.93;;;5.50;;
46651;SDS011;32377;52.182;5.398;2023-09-08T13:46:35;6.60;;;5.72;;
46651;SDS011;32377;52.182;5.398;2023-09-08T13:49:00;9.60;;;6.05;;
46651;SDS011;32377;52.182;5.398;2023-09-08T13:51:26;9.10;;;5.60;;
46651;SDS011;32377;52.182;5.398;2023-09-08T13:53:51;10.45;;;5.78;;
46651;SDS011;32377;52.182;5.398;2023-09-08T13:56:17;10.18;;;5.78;;
46651;SDS011;32377;52.182;5.398;2023-09-08T13:58:42;5.75;;;5.15;;
46651;SDS011;32377;52.182;5.398;2023-09-08T14:01:10;8.25;;;5.57;;
46651;SDS011;32377;52.182;5.398;2023-09-08T14:03:36;11.40;;;5.32;;
46651;SDS011;32377;52.182;5.398;2023-09-08T14:06:02;7.18;;;5.80;;
46651;SDS011;32377;52.182;5.398;2023-09-08T14:08:27;8.80;;;5.80;;
46651;SDS011;32377;52.182;5.398;2023-09-08T14:10:53;6.53;;;5.13;;
46651;SDS011;32377;52.182;5.398;2023-09-08T14:13:19;8.82;;;5.03;;
46651;SDS011;32377;52.182;5.398;2023-09-08T14:15:45;10.07;;;5.53;;
46651;SDS011;32377;52.182;5.398;2023-09-08T14:18:10;9.30;;;5.55;;
46651;SDS011;32377;52.182;5.398;2023-09-08T14:20:36;10.93;;;5.43;;
46651;SDS011;32377;52.182;5.398;2023-09-08T14:23:02;8.57;;;5.72;;
46651;SDS011;32377;52.182;5.398;2023-09-08T14:25:27;8.30;;;5.47;;
46651;SDS011;32377;52.182;5.398;2023-09-08T14:27:53;8.55;;;5.43;;
46651;SDS011;32377;52.182;5.398;2023-09-08T14:30:19;10.57;;;5.00;;
46651;SDS011;32377;52.182;5.398;2023-09-08T14:32:44;9.23;;;5.10;;
46651;SDS011;32377;52.182;5.398;2023-09-08T14:35:11;7.70;;;5.80;;